Mettler, Australia
Current Conditions -  °F | °C
As of 5:30 AM on Saturday 20 Dec 2014 (Local Time) from YABA Reporting Station
Broken Clouds Broken Clouds  
Wind Chill: 64°   Ceiling: 1000
Heat Index: 64°   Visibility: NA
Dew Point: 63°   Wind: 8mph
Humidity: 94%   Direction: 110°ESE
Pressure: 29.83"   Gusts: NA
Location:  34.59°S, 118.44°E
Report Text: YABA 192130Z AUTO 11007KT //// // BKN010 18/17 Q1010
Loading
Personal Weather Stations






























Interactive Weather Map New forecast layout! Learn more

10-Day Weather Forecast

Advertisements
Track Severe Weather on mobile